Witbank, South Africa
Current Conditions -  °F | °C
As of 12:00 PM on Sunday 23 Nov 2014 (Local Time) from FAOR Reporting Station
Moderate Rain Moderate Rain  
Wind Chill: 59°   Ceiling: 3100
Heat Index: 59°   Visibility: 4mi
Dew Point: 54°   Wind: 15mph
Humidity: 82%   Direction: 290°WNW
Pressure: 30.33"   Gusts: NA
Location:  25.86°S, 29.22°E
Report Text: FAOR 231000Z 29013KT 250V350 7000 RA BKN031 15/12 Q1027 TEMPO 3000
Loading
Personal Weather Stations






























Interactive Weather Map New forecast layout! Learn more

10-Day Weather Forecast

Advertisements
Track Severe Weather on mobile